Terminal Aerodrome Forecast
Issued by NWS Greer, SC

Home | Current Version | Previous Version | Text Only | Print | Product List | Glossary On
Versions: 1 2 3 4 5 6 7 8 9 10 11 12 13 14 15 16 17 18 19 20 21 22 23 24 25 26 27 28 29 30 31 32 33 34 35 36 37 38 39 40 41 42 43 44 45 46 47 48
000
FTUS42 KGSP 290856 AAC
TAFCLT
TAF AMD
KCLT 290856Z 2909/3006 36003KT 3SM RA BR SCT004 OVC018
      TEMPO 2910/2913 5SM BR SCT009 OVC029
     FM291300 06006KT 5SM -RA BR OVC006
     FM291800 03005KT P6SM OVC007
     FM292100 04005KT P6SM OVC006=

USA.gov is the U.S. government's official web portal to all federal, state and local government web resources and services.